sensor_id;sensor_type;location;lat;lon;timestamp;P1;durP1;ratioP1;P2;durP2;ratioP2
17842;SDS011;69286;48.222;16.332;2024-02-16T00:01:05;25.87;;;15.57;;
17842;SDS011;69286;48.222;16.332;2024-02-16T00:03:32;32.90;;;16.63;;
17842;SDS011;69286;48.222;16.332;2024-02-16T00:05:59;25.83;;;15.40;;
17842;SDS011;69286;48.222;16.332;2024-02-16T00:08:26;26.43;;;15.43;;
17842;SDS011;69286;48.222;16.332;2024-02-16T00:10:55;27.27;;;16.97;;
17842;SDS011;69286;48.222;16.332;2024-02-16T00:13:21;27.93;;;15.80;;
17842;SDS011;69286;48.222;16.332;2024-02-16T00:15:48;24.03;;;15.53;;
17842;SDS011;69286;48.222;16.332;2024-02-16T00:18:15;23.67;;;14.73;;
17842;SDS011;69286;48.222;16.332;2024-02-16T00:20:42;26.03;;;15.17;;
17842;SDS011;69286;48.222;16.332;2024-02-16T00:23:11;25.33;;;15.63;;
17842;SDS011;69286;48.222;16.332;2024-02-16T00:25:38;28.83;;;15.10;;
17842;SDS011;69286;48.222;16.332;2024-02-16T00:28:07;24.93;;;14.63;;
17842;SDS011;69286;48.222;16.332;2024-02-16T00:30:35;26.33;;;15.13;;
17842;SDS011;69286;48.222;16.332;2024-02-16T00:33:02;23.50;;;14.80;;
17842;SDS011;69286;48.222;16.332;2024-02-16T00:35:29;26.23;;;15.47;;
17842;SDS011;69286;48.222;16.332;2024-02-16T00:37:58;26.20;;;14.93;;
17842;SDS011;69286;48.222;16.332;2024-02-16T00:40:25;27.77;;;15.70;;
17842;SDS011;69286;48.222;16.332;2024-02-16T00:42:52;29.40;;;15.83;;
17842;SDS011;69286;48.222;16.332;2024-02-16T00:45:21;23.90;;;14.23;;
17842;SDS011;69286;48.222;16.332;2024-02-16T00:47:47;25.13;;;15.10;;
17842;SDS011;69286;48.222;16.332;2024-02-16T00:50:15;25.17;;;14.57;;
17842;SDS011;69286;48.222;16.332;2024-02-16T00:52:42;26.57;;;15.17;;
17842;SDS011;69286;48.222;16.332;2024-02-16T00:55:10;24.57;;;15.23;;
17842;SDS011;69286;48.222;16.332;2024-02-16T00:57:38;26.63;;;15.30;;
17842;SDS011;69286;48.222;16.332;2024-02-16T01:00:06;23.70;;;14.10;;
17842;SDS011;69286;48.222;16.332;2024-02-16T01:02:36;26.40;;;15.30;;
17842;SDS011;69286;48.222;16.332;2024-02-16T01:05:04;25.80;;;15.30;;
17842;SDS011;69286;48.222;16.332;2024-02-16T01:07:31;28.13;;;15.13;;
17842;SDS011;69286;48.222;16.332;2024-02-16T01:09:58;28.17;;;15.70;;
17842;SDS011;69286;48.222;16.332;2024-02-16T01:12:26;24.67;;;15.33;;
17842;SDS011;69286;48.222;16.332;2024-02-16T01:14:55;28.07;;;14.83;;
17842;SDS011;69286;48.222;16.332;2024-02-16T01:17:22;31.60;;;15.40;;
17842;SDS011;69286;48.222;16.332;2024-02-16T01:19:51;26.93;;;15.83;;
17842;SDS011;69286;48.222;16.332;2024-02-16T01:22:17;26.00;;;14.73;;
17842;SDS011;69286;48.222;16.332;2024-02-16T01:24:44;24.87;;;14.87;;
17842;SDS011;69286;48.222;16.332;2024-02-16T01:27:14;26.80;;;15.33;;
17842;SDS011;69286;48.222;16.332;2024-02-16T01:29:42;23.23;;;15.17;;
17842;SDS011;69286;48.222;16.332;2024-02-16T01:32:09;26.57;;;15.13;;
17842;SDS011;69286;48.222;16.332;2024-02-16T01:34:36;25.03;;;14.83;;
17842;SDS011;69286;48.222;16.332;2024-02-16T01:37:05;23.33;;;14.70;;
17842;SDS011;69286;48.222;16.332;2024-02-16T01:39:32;22.23;;;14.27;;
17842;SDS011;69286;48.222;16.332;2024-02-16T01:41:59;24.20;;;15.10;;
17842;SDS011;69286;48.222;16.332;2024-02-16T01:44:26;22.27;;;14.13;;
17842;SDS011;69286;48.222;16.332;2024-02-16T01:46:53;24.40;;;15.80;;
17842;SDS011;69286;48.222;16.332;2024-02-16T01:49:20;25.53;;;15.17;;
17842;SDS011;69286;48.222;16.332;2024-02-16T01:51:47;23.47;;;14.63;;
17842;SDS011;69286;48.222;16.332;2024-02-16T01:54:16;23.27;;;15.23;;
17842;SDS011;69286;48.222;16.332;2024-02-16T01:56:43;28.17;;;14.43;;
17842;SDS011;69286;48.222;16.332;2024-02-16T01:59:10;24.67;;;14.47;;
17842;SDS011;69286;48.222;16.332;2024-02-16T02:01:37;25.90;;;14.23;;
17842;SDS011;69286;48.222;16.332;2024-02-16T02:04:04;21.50;;;13.70;;
17842;SDS011;69286;48.222;16.332;2024-02-16T02:06:32;25.23;;;14.47;;
17842;SDS011;69286;48.222;16.332;2024-02-16T02:08:59;24.10;;;14.63;;
17842;SDS011;69286;48.222;16.332;2024-02-16T02:11:27;23.23;;;14.27;;
17842;SDS011;69286;48.222;16.332;2024-02-16T02:13:54;23.53;;;14.33;;
17842;SDS011;69286;48.222;16.332;2024-02-16T02:16:21;26.00;;;14.60;;
17842;SDS011;69286;48.222;16.332;2024-02-16T02:18:51;22.77;;;14.40;;
17842;SDS011;69286;48.222;16.332;2024-02-16T02:21:18;26.20;;;14.00;;
17842;SDS011;69286;48.222;16.332;2024-02-16T02:23:47;23.83;;;13.73;;
17842;SDS011;69286;48.222;16.332;2024-02-16T02:26:14;21.03;;;13.20;;
17842;SDS011;69286;48.222;16.332;2024-02-16T02:28:42;24.77;;;15.23;;
17842;SDS011;69286;48.222;16.332;2024-02-16T02:31:09;21.27;;;12.90;;
17842;SDS011;69286;48.222;16.332;2024-02-16T02:33:36;20.93;;;14.10;;
17842;SDS011;69286;48.222;16.332;2024-02-16T02:36:03;30.03;;;13.67;;
17842;SDS011;69286;48.222;16.332;2024-02-16T02:38:31;21.43;;;13.67;;
17842;SDS011;69286;48.222;16.332;2024-02-16T02:40:59;20.93;;;13.13;;
17842;SDS011;69286;48.222;16.332;2024-02-16T02:43:27;24.27;;;13.50;;
17842;SDS011;69286;48.222;16.332;2024-02-16T02:45:54;22.90;;;13.93;;
17842;SDS011;69286;48.222;16.332;2024-02-16T02:48:21;26.17;;;13.30;;
17842;SDS011;69286;48.222;16.332;2024-02-16T02:50:48;25.63;;;12.87;;
17842;SDS011;69286;48.222;16.332;2024-02-16T02:53:15;24.87;;;14.03;;
17842;SDS011;69286;48.222;16.332;2024-02-16T02:55:43;21.17;;;13.37;;
17842;SDS011;69286;48.222;16.332;2024-02-16T02:58:11;21.37;;;13.60;;
17842;SDS011;69286;48.222;16.332;2024-02-16T03:00:38;23.83;;;14.27;;
17842;SDS011;69286;48.222;16.332;2024-02-16T03:03:07;21.73;;;13.23;;
17842;SDS011;69286;48.222;16.332;2024-02-16T03:05:34;22.20;;;13.00;;
17842;SDS011;69286;48.222;16.332;2024-02-16T03:08:01;21.63;;;13.37;;
17842;SDS011;69286;48.222;16.332;2024-02-16T03:10:28;22.17;;;14.03;;
17842;SDS011;69286;48.222;16.332;2024-02-16T03:12:59;22.47;;;13.70;;
17842;SDS011;69286;48.222;16.332;2024-02-16T03:15:28;19.70;;;12.70;;
17842;SDS011;69286;48.222;16.332;2024-02-16T03:17:55;27.00;;;14.20;;
17842;SDS011;69286;48.222;16.332;2024-02-16T03:20:22;20.93;;;13.70;;
17842;SDS011;69286;48.222;16.332;2024-02-16T03:22:49;26.57;;;14.90;;
17842;SDS011;69286;48.222;16.332;2024-02-16T03:25:16;27.20;;;13.83;;
17842;SDS011;69286;48.222;16.332;2024-02-16T03:27:43;23.67;;;14.73;;
17842;SDS011;69286;48.222;16.332;2024-02-16T03:30:10;22.73;;;14.53;;
17842;SDS011;69286;48.222;16.332;2024-02-16T03:32:38;22.77;;;13.93;;
17842;SDS011;69286;48.222;16.332;2024-02-16T03:35:06;29.57;;;15.00;;
17842;SDS011;69286;48.222;16.332;2024-02-16T03:37:33;25.30;;;14.07;;
17842;SDS011;69286;48.222;16.332;2024-02-16T03:40:00;22.33;;;14.60;;
17842;SDS011;69286;48.222;16.332;2024-02-16T03:42:29;23.43;;;14.67;;
17842;SDS011;69286;48.222;16.332;2024-02-16T03:44:57;25.40;;;15.53;;
17842;SDS011;69286;48.222;16.332;2024-02-16T03:47:24;25.67;;;15.13;;
17842;SDS011;69286;48.222;16.332;2024-02-16T03:49:52;23.13;;;14.27;;
17842;SDS011;69286;48.222;16.332;2024-02-16T03:52:19;24.93;;;13.57;;
17842;SDS011;69286;48.222;16.332;2024-02-16T03:54:46;22.77;;;13.47;;
17842;SDS011;69286;48.222;16.332;2024-02-16T03:57:14;24.33;;;15.30;;
17842;SDS011;69286;48.222;16.332;2024-02-16T03:59:41;25.10;;;14.20;;
17842;SDS011;69286;48.222;16.332;2024-02-16T04:02:09;21.47;;;13.93;;
17842;SDS011;69286;48.222;16.332;2024-02-16T04:04:36;25.27;;;14.33;;
17842;SDS011;69286;48.222;16.332;2024-02-16T04:07:04;21.70;;;13.03;;
17842;SDS011;69286;48.222;16.332;2024-02-16T04:09:33;23.37;;;13.50;;
17842;SDS011;69286;48.222;16.332;2024-02-16T04:12:00;23.47;;;14.50;;
17842;SDS011;69286;48.222;16.332;2024-02-16T04:14:28;23.70;;;13.53;;
17842;SDS011;69286;48.222;16.332;2024-02-16T04:16:55;19.97;;;12.73;;
17842;SDS011;69286;48.222;16.332;2024-02-16T04:19:23;21.80;;;13.07;;
17842;SDS011;69286;48.222;16.332;2024-02-16T04:21:50;18.60;;;12.67;;
17842;SDS011;69286;48.222;16.332;2024-02-16T04:24:19;20.23;;;13.03;;
17842;SDS011;69286;48.222;16.332;2024-02-16T04:26:46;23.43;;;13.80;;
17842;SDS011;69286;48.222;16.332;2024-02-16T04:29:13;20.07;;;13.90;;
17842;SDS011;69286;48.222;16.332;2024-02-16T04:31:41;19.63;;;12.77;;
17842;SDS011;69286;48.222;16.332;2024-02-16T04:34:10;19.77;;;13.30;;
17842;SDS011;69286;48.222;16.332;2024-02-16T04:36:37;24.27;;;12.63;;
17842;SDS011;69286;48.222;16.332;2024-02-16T04:39:04;23.30;;;13.53;;
17842;SDS011;69286;48.222;16.332;2024-02-16T04:41:32;22.50;;;12.60;;
17842;SDS011;69286;48.222;16.332;2024-02-16T04:43:59;20.63;;;13.33;;
17842;SDS011;69286;48.222;16.332;2024-02-16T04:46:26;22.23;;;13.30;;
17842;SDS011;69286;48.222;16.332;2024-02-16T04:48:53;20.37;;;12.90;;
17842;SDS011;69286;48.222;16.332;2024-02-16T04:51:20;24.77;;;14.13;;
17842;SDS011;69286;48.222;16.332;2024-02-16T04:53:47;19.17;;;12.67;;
17842;SDS011;69286;48.222;16.332;2024-02-16T04:56:14;23.13;;;12.73;;
17842;SDS011;69286;48.222;16.332;2024-02-16T04:58:42;24.33;;;14.07;;
17842;SDS011;69286;48.222;16.332;2024-02-16T05:01:09;21.97;;;13.73;;
17842;SDS011;69286;48.222;16.332;2024-02-16T05:03:36;23.27;;;13.60;;
17842;SDS011;69286;48.222;16.332;2024-02-16T05:06:05;20.20;;;12.90;;
17842;SDS011;69286;48.222;16.332;2024-02-16T05:08:32;22.07;;;12.83;;
17842;SDS011;69286;48.222;16.332;2024-02-16T05:11:00;22.10;;;12.97;;
17842;SDS011;69286;48.222;16.332;2024-02-16T05:13:27;20.67;;;12.30;;
17842;SDS011;69286;48.222;16.332;2024-02-16T05:15:55;23.83;;;13.03;;
17842;SDS011;69286;48.222;16.332;2024-02-16T05:18:22;23.23;;;13.93;;
17842;SDS011;69286;48.222;16.332;2024-02-16T05:20:50;22.77;;;13.20;;
17842;SDS011;69286;48.222;16.332;2024-02-16T05:23:17;22.97;;;12.47;;
17842;SDS011;69286;48.222;16.332;2024-02-16T05:25:44;16.47;;;11.30;;
17842;SDS011;69286;48.222;16.332;2024-02-16T05:28:11;19.20;;;13.03;;
17842;SDS011;69286;48.222;16.332;2024-02-16T05:30:39;22.00;;;13.17;;
17842;SDS011;69286;48.222;16.332;2024-02-16T05:33:07;20.03;;;12.67;;
17842;SDS011;69286;48.222;16.332;2024-02-16T05:35:34;21.80;;;12.87;;
17842;SDS011;69286;48.222;16.332;2024-02-16T05:38:05;18.73;;;12.67;;
17842;SDS011;69286;48.222;16.332;2024-02-16T05:40:45;25.83;;;13.23;;
17842;SDS011;69286;48.222;16.332;2024-02-16T05:43:18;24.87;;;14.00;;
17842;SDS011;69286;48.222;16.332;2024-02-16T05:45:45;21.87;;;13.47;;
17842;SDS011;69286;48.222;16.332;2024-02-16T05:48:14;20.77;;;13.00;;
17842;SDS011;69286;48.222;16.332;2024-02-16T05:50:41;21.07;;;12.50;;
17842;SDS011;69286;48.222;16.332;2024-02-16T05:53:09;19.93;;;12.40;;
17842;SDS011;69286;48.222;16.332;2024-02-16T05:55:36;23.40;;;12.30;;
17842;SDS011;69286;48.222;16.332;2024-02-16T05:58:03;23.70;;;13.00;;
17842;SDS011;69286;48.222;16.332;2024-02-16T06:00:31;22.50;;;13.03;;
17842;SDS011;69286;48.222;16.332;2024-02-16T06:02:59;18.87;;;11.43;;
17842;SDS011;69286;48.222;16.332;2024-02-16T06:05:29;23.07;;;12.83;;
17842;SDS011;69286;48.222;16.332;2024-02-16T06:07:56;20.33;;;12.40;;
17842;SDS011;69286;48.222;16.332;2024-02-16T06:10:24;24.73;;;13.77;;
17842;SDS011;69286;48.222;16.332;2024-02-16T06:12:51;21.07;;;12.37;;
17842;SDS011;69286;48.222;16.332;2024-02-16T06:15:18;22.60;;;12.70;;
17842;SDS011;69286;48.222;16.332;2024-02-16T06:17:45;23.03;;;12.30;;
17842;SDS011;69286;48.222;16.332;2024-02-16T06:20:14;24.60;;;13.10;;
17842;SDS011;69286;48.222;16.332;2024-02-16T06:22:43;21.50;;;13.20;;
17842;SDS011;69286;48.222;16.332;2024-02-16T06:25:10;21.37;;;11.50;;
17842;SDS011;69286;48.222;16.332;2024-02-16T06:27:37;18.13;;;11.90;;
17842;SDS011;69286;48.222;16.332;2024-02-16T06:30:04;23.20;;;12.20;;
17842;SDS011;69286;48.222;16.332;2024-02-16T06:32:32;22.97;;;11.80;;
17842;SDS011;69286;48.222;16.332;2024-02-16T06:34:59;20.43;;;11.40;;
17842;SDS011;69286;48.222;16.332;2024-02-16T06:37:26;22.67;;;12.73;;
17842;SDS011;69286;48.222;16.332;2024-02-16T06:39:54;18.80;;;11.70;;
17842;SDS011;69286;48.222;16.332;2024-02-16T06:42:21;19.00;;;12.07;;
17842;SDS011;69286;48.222;16.332;2024-02-16T06:44:48;18.50;;;11.53;;
17842;SDS011;69286;48.222;16.332;2024-02-16T06:47:15;17.10;;;11.00;;
17842;SDS011;69286;48.222;16.332;2024-02-16T06:49:43;21.87;;;11.93;;
17842;SDS011;69286;48.222;16.332;2024-02-16T06:52:11;20.03;;;11.60;;
17842;SDS011;69286;48.222;16.332;2024-02-16T06:54:38;16.40;;;10.90;;
17842;SDS011;69286;48.222;16.332;2024-02-16T06:57:07;17.57;;;11.07;;
17842;SDS011;69286;48.222;16.332;2024-02-16T06:59:33;18.23;;;10.40;;
17842;SDS011;69286;48.222;16.332;2024-02-16T07:02:00;18.27;;;10.23;;
17842;SDS011;69286;48.222;16.332;2024-02-16T07:04:27;28.73;;;9.10;;
17842;SDS011;69286;48.222;16.332;2024-02-16T07:06:54;16.97;;;9.40;;
17842;SDS011;69286;48.222;16.332;2024-02-16T07:09:21;15.83;;;8.87;;
17842;SDS011;69286;48.222;16.332;2024-02-16T07:11:48;15.90;;;8.90;;
17842;SDS011;69286;48.222;16.332;2024-02-16T07:14:16;16.40;;;8.87;;
17842;SDS011;69286;48.222;16.332;2024-02-16T07:16:44;15.63;;;9.27;;
17842;SDS011;69286;48.222;16.332;2024-02-16T07:19:11;13.23;;;9.20;;
17842;SDS011;69286;48.222;16.332;2024-02-16T07:21:38;13.63;;;9.50;;
17842;SDS011;69286;48.222;16.332;2024-02-16T07:24:06;13.73;;;8.73;;
17842;SDS011;69286;48.222;16.332;2024-02-16T07:26:34;18.10;;;9.93;;
17842;SDS011;69286;48.222;16.332;2024-02-16T07:29:01;16.37;;;8.90;;
17842;SDS011;69286;48.222;16.332;2024-02-16T07:31:32;17.43;;;10.00;;
17842;SDS011;69286;48.222;16.332;2024-02-16T07:33:59;16.70;;;10.13;;
17842;SDS011;69286;48.222;16.332;2024-02-16T07:36:26;18.90;;;9.80;;
17842;SDS011;69286;48.222;16.332;2024-02-16T07:38:54;22.03;;;9.40;;
17842;SDS011;69286;48.222;16.332;2024-02-16T07:41:21;14.20;;;9.53;;
17842;SDS011;69286;48.222;16.332;2024-02-16T07:43:48;17.60;;;9.37;;
17842;SDS011;69286;48.222;16.332;2024-02-16T07:46:15;11.97;;;8.73;;
17842;SDS011;69286;48.222;16.332;2024-02-16T07:48:44;16.57;;;9.03;;
17842;SDS011;69286;48.222;16.332;2024-02-16T07:51:11;15.93;;;8.77;;
17842;SDS011;69286;48.222;16.332;2024-02-16T07:53:38;13.17;;;7.60;;
17842;SDS011;69286;48.222;16.332;2024-02-16T07:56:07;15.07;;;8.13;;
17842;SDS011;69286;48.222;16.332;2024-02-16T07:58:34;14.80;;;8.80;;
17842;SDS011;69286;48.222;16.332;2024-02-16T08:01:01;14.00;;;8.43;;
17842;SDS011;69286;48.222;16.332;2024-02-16T08:03:28;15.60;;;8.23;;
17842;SDS011;69286;48.222;16.332;2024-02-16T08:05:57;19.00;;;8.23;;
17842;SDS011;69286;48.222;16.332;2024-02-16T08:08:24;11.93;;;7.70;;
17842;SDS011;69286;48.222;16.332;2024-02-16T08:10:51;16.40;;;8.17;;
17842;SDS011;69286;48.222;16.332;2024-02-16T08:13:18;15.53;;;8.47;;
17842;SDS011;69286;48.222;16.332;2024-02-16T08:15:45;14.47;;;7.73;;
17842;SDS011;69286;48.222;16.332;2024-02-16T08:18:13;13.93;;;7.93;;
17842;SDS011;69286;48.222;16.332;2024-02-16T08:20:41;11.63;;;7.17;;
17842;SDS011;69286;48.222;16.332;2024-02-16T08:23:09;16.57;;;7.93;;
17842;SDS011;69286;48.222;16.332;2024-02-16T08:25:36;13.93;;;7.80;;
17842;SDS011;69286;48.222;16.332;2024-02-16T08:28:04;13.87;;;8.07;;
17842;SDS011;69286;48.222;16.332;2024-02-16T08:30:31;13.17;;;7.03;;
17842;SDS011;69286;48.222;16.332;2024-02-16T08:32:58;10.20;;;7.13;;
17842;SDS011;69286;48.222;16.332;2024-02-16T08:35:26;13.57;;;7.50;;
17842;SDS011;69286;48.222;16.332;2024-02-16T08:37:54;12.53;;;8.00;;
17842;SDS011;69286;48.222;16.332;2024-02-16T08:40:22;14.47;;;7.67;;
17842;SDS011;69286;48.222;16.332;2024-02-16T08:42:50;13.00;;;6.90;;
17842;SDS011;69286;48.222;16.332;2024-02-16T08:45:16;10.20;;;7.33;;
17842;SDS011;69286;48.222;16.332;2024-02-16T08:47:43;16.10;;;8.00;;
17842;SDS011;69286;48.222;16.332;2024-02-16T08:50:10;15.67;;;7.40;;
17842;SDS011;69286;48.222;16.332;2024-02-16T08:52:38;16.87;;;6.90;;
17842;SDS011;69286;48.222;16.332;2024-02-16T08:55:05;11.13;;;7.00;;
17842;SDS011;69286;48.222;16.332;2024-02-16T08:57:34;11.40;;;7.20;;
17842;SDS011;69286;48.222;16.332;2024-02-16T09:00:02;14.80;;;8.13;;
17842;SDS011;69286;48.222;16.332;2024-02-16T09:02:30;8.80;;;6.40;;
17842;SDS011;69286;48.222;16.332;2024-02-16T09:04:57;11.00;;;6.67;;
17842;SDS011;69286;48.222;16.332;2024-02-16T09:07:24;15.23;;;6.67;;
17842;SDS011;69286;48.222;16.332;2024-02-16T09:09:52;13.47;;;6.20;;
17842;SDS011;69286;48.222;16.332;2024-02-16T09:12:21;7.77;;;5.13;;
17842;SDS011;69286;48.222;16.332;2024-02-16T09:14:50;14.40;;;7.30;;
17842;SDS011;69286;48.222;16.332;2024-02-16T09:17:16;14.03;;;7.73;;
17842;SDS011;69286;48.222;16.332;2024-02-16T09:19:44;13.40;;;5.93;;
17842;SDS011;69286;48.222;16.332;2024-02-16T09:22:11;13.07;;;6.47;;
17842;SDS011;69286;48.222;16.332;2024-02-16T09:24:39;12.40;;;6.93;;
17842;SDS011;69286;48.222;16.332;2024-02-16T09:27:06;8.27;;;6.20;;
17842;SDS011;69286;48.222;16.332;2024-02-16T09:29:35;15.97;;;6.60;;
17842;SDS011;69286;48.222;16.332;2024-02-16T09:32:06;10.63;;;5.90;;
17842;SDS011;69286;48.222;16.332;2024-02-16T09:34:33;10.77;;;4.87;;
17842;SDS011;69286;48.222;16.332;2024-02-16T09:37:00;9.53;;;6.23;;
17842;SDS011;69286;48.222;16.332;2024-02-16T09:39:28;15.17;;;6.63;;
17842;SDS011;69286;48.222;16.332;2024-02-16T09:41:55;10.70;;;6.27;;
17842;SDS011;69286;48.222;16.332;2024-02-16T09:44:23;10.57;;;5.93;;
17842;SDS011;69286;48.222;16.332;2024-02-16T09:46:51;5.87;;;4.23;;
17842;SDS011;69286;48.222;16.332;2024-02-16T09:49:22;12.07;;;6.50;;
17842;SDS011;69286;48.222;16.332;2024-02-16T09:51:49;14.37;;;7.03;;
17842;SDS011;69286;48.222;16.332;2024-02-16T09:54:17;15.33;;;7.17;;
17842;SDS011;69286;48.222;16.332;2024-02-16T09:56:44;14.43;;;6.57;;
17842;SDS011;69286;48.222;16.332;2024-02-16T09:59:12;25.40;;;11.37;;
17842;SDS011;69286;48.222;16.332;2024-02-16T10:01:39;11.80;;;6.43;;
17842;SDS011;69286;48.222;16.332;2024-02-16T10:04:06;9.00;;;4.93;;
17842;SDS011;69286;48.222;16.332;2024-02-16T10:06:39;16.47;;;5.77;;
17842;SDS011;69286;48.222;16.332;2024-02-16T10:09:21;4.70;;;3.60;;
17842;SDS011;69286;48.222;16.332;2024-02-16T10:11:50;5.00;;;3.33;;
17842;SDS011;69286;48.222;16.332;2024-02-16T10:14:17;7.97;;;4.97;;
17842;SDS011;69286;48.222;16.332;2024-02-16T10:16:44;7.70;;;4.10;;
17842;SDS011;69286;48.222;16.332;2024-02-16T10:19:12;13.33;;;4.17;;
17842;SDS011;69286;48.222;16.332;2024-02-16T10:21:41;4.20;;;3.40;;
17842;SDS011;69286;48.222;16.332;2024-02-16T10:24:08;7.83;;;3.70;;
17842;SDS011;69286;48.222;16.332;2024-02-16T10:26:36;12.10;;;3.53;;
17842;SDS011;69286;48.222;16.332;2024-02-16T10:29:04;7.77;;;3.40;;
17842;SDS011;69286;48.222;16.332;2024-02-16T10:31:33;5.47;;;3.13;;
17842;SDS011;69286;48.222;16.332;2024-02-16T10:34:01;7.63;;;3.60;;
17842;SDS011;69286;48.222;16.332;2024-02-16T10:36:31;8.50;;;4.37;;
17842;SDS011;69286;48.222;16.332;2024-02-16T10:39:00;6.43;;;3.47;;
17842;SDS011;69286;48.222;16.332;2024-02-16T10:41:30;5.03;;;3.50;;
17842;SDS011;69286;48.222;16.332;2024-02-16T10:44:01;5.67;;;3.80;;
17842;SDS011;69286;48.222;16.332;2024-02-16T10:46:29;5.30;;;3.20;;
17842;SDS011;69286;48.222;16.332;2024-02-16T10:48:56;3.63;;;2.60;;
17842;SDS011;69286;48.222;16.332;2024-02-16T10:51:24;5.77;;;3.47;;
17842;SDS011;69286;48.222;16.332;2024-02-16T10:53:56;10.10;;;3.13;;
17842;SDS011;69286;48.222;16.332;2024-02-16T10:56:31;4.27;;;3.20;;
17842;SDS011;69286;48.222;16.332;2024-02-16T10:59:00;10.00;;;3.30;;
17842;SDS011;69286;48.222;16.332;2024-02-16T11:01:31;6.37;;;3.23;;
17842;SDS011;69286;48.222;16.332;2024-02-16T11:04:03;5.87;;;3.20;;
17842;SDS011;69286;48.222;16.332;2024-02-16T11:06:33;4.03;;;3.13;;
17842;SDS011;69286;48.222;16.332;2024-02-16T11:09:22;3.43;;;3.00;;
17842;SDS011;69286;48.222;16.332;2024-02-16T11:11:53;4.63;;;3.43;;
17842;SDS011;69286;48.222;16.332;2024-02-16T11:14:21;7.43;;;3.50;;
17842;SDS011;69286;48.222;16.332;2024-02-16T11:16:50;5.53;;;3.23;;
17842;SDS011;69286;48.222;16.332;2024-02-16T11:19:21;10.97;;;3.47;;
17842;SDS011;69286;48.222;16.332;2024-02-16T11:21:55;5.80;;;3.40;;
17842;SDS011;69286;48.222;16.332;2024-02-16T11:24:30;4.23;;;3.20;;
17842;SDS011;69286;48.222;16.332;2024-02-16T11:27:00;5.23;;;3.60;;
17842;SDS011;69286;48.222;16.332;2024-02-16T11:29:29;6.10;;;3.00;;
17842;SDS011;69286;48.222;16.332;2024-02-16T11:31:59;3.50;;;2.90;;
17842;SDS011;69286;48.222;16.332;2024-02-16T11:34:27;7.17;;;3.43;;
17842;SDS011;69286;48.222;16.332;2024-02-16T11:36:55;3.53;;;2.73;;
17842;SDS011;69286;48.222;16.332;2024-02-16T11:39:23;4.87;;;3.40;;
17842;SDS011;69286;48.222;16.332;2024-02-16T11:42:01;4.03;;;2.83;;
17842;SDS011;69286;48.222;16.332;2024-02-16T11:44:29;5.93;;;3.43;;
17842;SDS011;69286;48.222;16.332;2024-02-16T11:46:58;4.63;;;3.13;;
17842;SDS011;69286;48.222;16.332;2024-02-16T11:49:25;6.37;;;3.40;;
17842;SDS011;69286;48.222;16.332;2024-02-16T11:51:55;11.53;;;3.23;;
17842;SDS011;69286;48.222;16.332;2024-02-16T11:54:22;5.13;;;3.40;;
17842;SDS011;69286;48.222;16.332;2024-02-16T11:56:51;5.33;;;3.33;;
17842;SDS011;69286;48.222;16.332;2024-02-16T11:59:20;4.40;;;3.10;;
17842;SDS011;69286;48.222;16.332;2024-02-16T12:01:51;6.87;;;2.73;;
17842;SDS011;69286;48.222;16.332;2024-02-16T12:04:19;3.47;;;2.70;;
17842;SDS011;69286;48.222;16.332;2024-02-16T12:06:51;3.87;;;2.63;;
17842;SDS011;69286;48.222;16.332;2024-02-16T12:09:18;2.97;;;2.60;;
17842;SDS011;69286;48.222;16.332;2024-02-16T12:11:46;6.27;;;2.60;;
17842;SDS011;69286;48.222;16.332;2024-02-16T12:14:14;5.30;;;2.97;;
17842;SDS011;69286;48.222;16.332;2024-02-16T12:16:46;3.33;;;2.70;;
17842;SDS011;69286;48.222;16.332;2024-02-16T12:19:13;8.40;;;3.30;;
17842;SDS011;69286;48.222;16.332;2024-02-16T12:21:40;3.33;;;2.70;;
17842;SDS011;69286;48.222;16.332;2024-02-16T12:24:07;3.87;;;2.23;;
17842;SDS011;69286;48.222;16.332;2024-02-16T12:26:35;6.20;;;3.17;;
17842;SDS011;69286;48.222;16.332;2024-02-16T12:29:02;3.20;;;2.30;;
17842;SDS011;69286;48.222;16.332;2024-02-16T12:31:29;4.10;;;2.60;;
17842;SDS011;69286;48.222;16.332;2024-02-16T12:33:58;3.40;;;2.33;;
17842;SDS011;69286;48.222;16.332;2024-02-16T12:36:26;3.47;;;2.30;;
17842;SDS011;69286;48.222;16.332;2024-02-16T12:38:53;3.73;;;3.00;;
17842;SDS011;69286;48.222;16.332;2024-02-16T12:41:20;3.67;;;2.73;;
17842;SDS011;69286;48.222;16.332;2024-02-16T12:43:47;4.77;;;2.70;;
17842;SDS011;69286;48.222;16.332;2024-02-16T12:46:14;5.30;;;2.67;;
17842;SDS011;69286;48.222;16.332;2024-02-16T12:48:41;2.90;;;2.60;;
17842;SDS011;69286;48.222;16.332;2024-02-16T12:51:10;5.33;;;2.60;;
17842;SDS011;69286;48.222;16.332;2024-02-16T12:53:37;6.60;;;2.50;;
17842;SDS011;69286;48.222;16.332;2024-02-16T12:56:06;3.63;;;2.83;;
17842;SDS011;69286;48.222;16.332;2024-02-16T12:58:34;5.73;;;2.83;;
17842;SDS011;69286;48.222;16.332;2024-02-16T13:01:01;6.27;;;2.90;;
17842;SDS011;69286;48.222;16.332;2024-02-16T13:03:31;4.67;;;2.97;;
17842;SDS011;69286;48.222;16.332;2024-02-16T13:05:59;14.33;;;3.43;;
17842;SDS011;69286;48.222;16.332;2024-02-16T13:08:27;3.33;;;2.63;;
17842;SDS011;69286;48.222;16.332;2024-02-16T13:10:54;4.93;;;2.73;;
17842;SDS011;69286;48.222;16.332;2024-02-16T13:13:21;5.83;;;2.93;;
17842;SDS011;69286;48.222;16.332;2024-02-16T13:15:49;6.87;;;3.20;;
17842;SDS011;69286;48.222;16.332;2024-02-16T13:18:16;3.63;;;2.70;;
17842;SDS011;69286;48.222;16.332;2024-02-16T13:20:43;4.27;;;2.90;;
17842;SDS011;69286;48.222;16.332;2024-02-16T13:23:10;5.47;;;3.07;;
17842;SDS011;69286;48.222;16.332;2024-02-16T13:25:39;4.80;;;3.03;;
17842;SDS011;69286;48.222;16.332;2024-02-16T13:28:06;7.57;;;3.17;;
17842;SDS011;69286;48.222;16.332;2024-02-16T13:30:33;8.60;;;3.40;;
17842;SDS011;69286;48.222;16.332;2024-02-16T13:33:00;6.07;;;3.60;;
17842;SDS011;69286;48.222;16.332;2024-02-16T13:35:27;4.00;;;3.10;;
17842;SDS011;69286;48.222;16.332;2024-02-16T13:37:54;11.90;;;3.53;;
17842;SDS011;69286;48.222;16.332;2024-02-16T13:40:22;11.07;;;3.83;;
17842;SDS011;69286;48.222;16.332;2024-02-16T13:42:50;6.60;;;3.63;;
17842;SDS011;69286;48.222;16.332;2024-02-16T13:45:20;7.33;;;3.60;;
17842;SDS011;69286;48.222;16.332;2024-02-16T13:47:50;4.40;;;3.00;;
17842;SDS011;69286;48.222;16.332;2024-02-16T13:50:17;5.37;;;3.83;;
17842;SDS011;69286;48.222;16.332;2024-02-16T13:52:44;6.00;;;3.93;;
17842;SDS011;69286;48.222;16.332;2024-02-16T13:55:12;5.63;;;3.43;;
17842;SDS011;69286;48.222;16.332;2024-02-16T13:57:39;6.77;;;3.30;;
17842;SDS011;69286;48.222;16.332;2024-02-16T14:00:08;8.30;;;3.53;;
17842;SDS011;69286;48.222;16.332;2024-02-16T14:02:36;12.80;;;3.70;;
17842;SDS011;69286;48.222;16.332;2024-02-16T14:05:03;9.07;;;4.20;;
17842;SDS011;69286;48.222;16.332;2024-02-16T14:07:30;8.67;;;4.10;;
17842;SDS011;69286;48.222;16.332;2024-02-16T14:09:58;7.13;;;3.40;;
17842;SDS011;69286;48.222;16.332;2024-02-16T14:12:25;4.33;;;3.30;;
17842;SDS011;69286;48.222;16.332;2024-02-16T14:14:52;8.40;;;4.43;;
17842;SDS011;69286;48.222;16.332;2024-02-16T14:17:20;6.53;;;4.10;;
17842;SDS011;69286;48.222;16.332;2024-02-16T14:19:47;8.00;;;3.90;;
17842;SDS011;69286;48.222;16.332;2024-02-16T14:22:14;10.83;;;3.13;;